createdAt,value
2019-05-03T00:03:58.403Z,8.2
2019-05-03T00:08:58.368Z,8.2
2019-05-03T00:13:58.355Z,8.2
2019-05-03T00:19:00.872Z,8.2
2019-05-03T00:23:58.497Z,8.2
2019-05-03T00:28:58.728Z,8.1
2019-05-03T00:33:58.624Z,8.1
2019-05-03T00:38:58.646Z,8.1
2019-05-03T00:43:58.617Z,8.1
2019-05-03T00:48:58.590Z,8.1
2019-05-03T00:53:58.672Z,8
2019-05-03T00:58:58.706Z,8
2019-05-03T01:03:58.637Z,8
2019-05-03T01:08:58.599Z,8
2019-05-03T01:14:02.591Z,8
2019-05-03T01:19:02.580Z,7.9
2019-05-03T01:24:01.705Z,7.9
2019-05-03T01:29:02.695Z,7.9
2019-05-03T01:34:02.323Z,7.9
2019-05-03T01:39:02.105Z,7.9
2019-05-03T01:44:02.209Z,7.9
2019-05-03T01:49:02.301Z,7.9
2019-05-03T01:54:02.137Z,7.9
2019-05-03T01:59:03.171Z,7.8
2019-05-03T02:04:03.271Z,7.8
2019-05-03T02:09:03.281Z,7.8
2019-05-03T02:14:03.242Z,7.8
2019-05-03T02:19:03.745Z,7.8
2019-05-03T02:24:03.370Z,7.8
2019-05-03T02:29:03.821Z,7.7
2019-05-03T02:34:03.763Z,7.7
2019-05-03T02:39:13.308Z,7.8
2019-05-03T02:44:15.578Z,7.8
2019-05-03T02:49:18.857Z,7.8
2019-05-03T02:54:18.872Z,7.8
2019-05-03T02:59:18.927Z,7.8
2019-05-03T03:04:19.022Z,7.8
2019-05-03T03:09:19.851Z,7.8
2019-05-03T03:14:20.373Z,7.8
2019-05-03T03:19:20.409Z,7.8
2019-05-03T03:24:20.343Z,7.8
2019-05-03T03:29:20.334Z,7.7
2019-05-03T03:34:20.331Z,7.8
2019-05-03T03:39:20.377Z,7.7
2019-05-03T03:44:20.397Z,7.7
2019-05-03T03:49:20.404Z,7.7
2019-05-03T03:54:20.669Z,7.7
2019-05-03T03:59:20.602Z,7.7
2019-05-03T04:04:22.349Z,7.7
2019-05-03T04:09:25.285Z,7.7
2019-05-03T04:14:22.876Z,7.7
2019-05-03T04:19:24.922Z,7.7
2019-05-03T04:24:22.465Z,7.7
2019-05-03T04:29:25.259Z,7.7
2019-05-03T04:34:22.635Z,7.7
2019-05-03T04:39:25.475Z,7.7
2019-05-03T04:44:22.455Z,7.7
2019-05-03T04:49:25.816Z,7.7
2019-05-03T04:54:24.935Z,7.7
2019-05-03T04:59:25.259Z,7.6
2019-05-03T05:04:22.465Z,7.6
2019-05-03T05:09:51.090Z,7.7
2019-05-03T05:14:51.286Z,7.7
2019-05-03T05:19:54.877Z,7.7
2019-05-03T05:24:55.180Z,7.7
2019-05-03T05:29:55.073Z,7.7
2019-05-03T05:34:54.926Z,7.8
2019-05-03T05:39:55.029Z,7.9
2019-05-03T05:44:55.436Z,7.9
2019-05-03T05:49:54.569Z,7.9
2019-05-03T05:55:15.858Z,8
2019-05-03T06:00:20.774Z,8
2019-05-03T06:05:25.033Z,8
2019-05-03T06:10:24.815Z,8.1
2019-05-03T06:15:25.011Z,8.3
2019-05-03T06:20:24.561Z,8.4
2019-05-03T06:25:26.171Z,8.3
2019-05-03T06:30:24.818Z,8.4
2019-05-03T06:35:24.360Z,8.5
2019-05-03T06:40:25.233Z,8.4
2019-05-03T06:45:25.075Z,8.3
2019-05-03T06:50:28.900Z,8.4
2019-05-03T07:00:27.640Z,8.2
2019-05-03T07:05:39.807Z,8.1
2019-05-03T07:10:40.990Z,8.1
2019-05-03T07:15:41.282Z,8.3
2019-05-03T07:20:40.935Z,8.4
2019-05-03T07:25:40.980Z,8.5
2019-05-03T07:30:40.947Z,8.6
2019-05-03T07:35:40.995Z,8.6
2019-05-03T07:40:41.205Z,8.6
2019-05-03T07:45:41.219Z,8.5
2019-05-03T07:50:41.225Z,8.7
2019-05-03T07:55:41.223Z,8.9
2019-05-03T08:00:41.226Z,8.9
2019-05-03T08:05:41.279Z,8.8
2019-05-03T08:10:41.214Z,8.8
2019-05-03T08:15:41.313Z,8.9
2019-05-03T08:20:41.177Z,8.9
2019-05-03T08:25:41.987Z,9
2019-05-03T08:30:42.013Z,9.1
2019-05-03T08:35:41.999Z,9.2
2019-05-03T08:40:42.274Z,9.3
2019-05-03T08:45:44.706Z,9.6
2019-05-03T08:50:44.934Z,9.6
2019-05-03T08:55:45.396Z,9.5
2019-05-03T09:00:45.578Z,9.5
2019-05-03T09:05:48.351Z,9.5
2019-05-03T09:10:48.370Z,9.6
2019-05-03T09:15:49.165Z,9.7
2019-05-03T09:20:49.286Z,10
2019-05-03T09:25:50.341Z,10.1
2019-05-03T09:30:50.312Z,10.1
2019-05-03T09:35:50.321Z,10.1
2019-05-03T09:40:51.909Z,10.3
2019-05-03T09:45:54.154Z,10.2
2019-05-03T09:50:52.700Z,10.2
2019-05-03T09:55:57.607Z,10.6
2019-05-03T10:00:57.591Z,10.8
2019-05-03T10:05:57.582Z,10.6
2019-05-03T10:10:57.591Z,10.4
2019-05-03T10:15:57.799Z,10.8
2019-05-03T10:21:00.940Z,10.9
2019-05-03T10:26:00.902Z,11
2019-05-03T10:31:00.896Z,11.6
2019-05-03T10:36:01.033Z,11.9
2019-05-03T10:41:01.215Z,11.8
2019-05-03T10:46:00.958Z,11.5
2019-05-03T10:51:04.672Z,11.2
2019-05-03T10:56:04.911Z,11.3
2019-05-03T11:01:04.541Z,11.8
2019-05-03T11:06:02.889Z,12.3
2019-05-03T11:11:02.923Z,11.9
2019-05-03T11:16:02.903Z,11.8
2019-05-03T11:21:02.843Z,11.7
2019-05-03T11:26:02.884Z,11.4
2019-05-03T11:31:05.016Z,11.8
2019-05-03T11:36:04.374Z,12
2019-05-03T11:41:04.841Z,12
2019-05-03T11:46:06.792Z,12.3
2019-05-03T11:51:07.335Z,12.8
2019-05-03T11:56:08.286Z,13.2
2019-05-03T12:01:15.115Z,13
2019-05-03T12:06:08.139Z,12.9
2019-05-03T12:11:15.040Z,12.5
2019-05-03T12:16:21.204Z,12.6
2019-05-03T12:21:17.758Z,13.1
2019-05-03T12:26:17.211Z,12.8
2019-05-03T12:31:28.081Z,12.9
2019-05-03T12:36:15.499Z,13.5
2019-05-03T12:41:15.147Z,12.9
2019-05-03T12:46:16.813Z,12.6
2019-05-03T12:51:15.544Z,13
2019-05-03T12:56:22.494Z,13.2
2019-05-03T13:01:15.663Z,13.4
2019-05-03T13:06:15.547Z,13.5
2019-05-03T13:11:17.106Z,13.3
2019-05-03T13:16:19.816Z,13.6
2019-05-03T13:22:12.485Z,13.4
2019-05-03T13:27:40.203Z,13.7
2019-05-03T13:34:37.765Z,13.7
2019-05-03T13:39:45.045Z,13.6
2019-05-03T13:44:50.206Z,13.2
2019-05-03T13:50:24.712Z,13.2
2019-05-03T13:55:26.895Z,13.1
2019-05-03T14:00:31.793Z,13.4
2019-05-03T14:05:44.633Z,13.5
2019-05-03T14:10:45.626Z,13.5
2019-05-03T14:15:59.175Z,13.4
2019-05-03T14:20:59.051Z,13.3
2019-05-03T14:26:18.503Z,13.4
2019-05-03T14:38:47.031Z,13.3
2019-05-03T14:44:29.055Z,13.2
2019-05-03T14:49:40.184Z,12.9
2019-05-03T14:54:40.748Z,13.1
2019-05-03T14:59:40.673Z,13
2019-05-03T15:04:43.909Z,13.1
2019-05-03T15:09:45.769Z,12.9
2019-05-03T15:14:45.177Z,12.7
2019-05-03T15:19:45.326Z,13
2019-05-03T15:25:06.699Z,13
2019-05-03T15:30:08.075Z,13
2019-05-03T15:35:08.921Z,12.8
2019-05-03T15:40:18.035Z,12.5
2019-05-03T15:45:17.962Z,12.3
2019-05-03T15:55:26.701Z,12.1
2019-05-03T16:00:26.716Z,11.9
2019-05-03T16:05:28.816Z,11.9
2019-05-03T16:10:28.837Z,11.8
2019-05-03T16:15:29.974Z,11.7
2019-05-03T16:20:39.091Z,11.5
2019-05-03T16:25:35.686Z,11.2
2019-05-03T16:30:36.627Z,11.2
2019-05-03T16:35:41.099Z,10.8
2019-05-03T16:40:42.298Z,10.6
2019-05-03T16:52:06.022Z,10.6
2019-05-03T16:57:24.736Z,10.4
2019-05-03T17:02:31.991Z,10.2
2019-05-03T17:07:32.313Z,10.1
2019-05-03T17:12:34.783Z,10.1
2019-05-03T17:17:35.796Z,9.9
2019-05-03T17:24:35.158Z,9.8
2019-05-03T17:29:55.971Z,9.7
2019-05-03T17:34:56.191Z,9.7
2019-05-03T17:40:02.770Z,9.6
2019-05-03T17:45:29.883Z,9.5
2019-05-03T17:50:55.020Z,9.5
2019-05-03T17:55:56.728Z,9.5
2019-05-03T18:01:35.201Z,9.5
2019-05-03T18:14:39.680Z,9.4
2019-05-03T18:20:38.261Z,9.4
2019-05-03T18:33:17.454Z,9.2
2019-05-03T18:52:36.453Z,9
2019-05-03T18:57:47.612Z,8.9
2019-05-03T19:02:54.594Z,8.9
2019-05-03T19:08:54.212Z,8.9
2019-05-03T19:14:40.976Z,8.8
2019-05-03T19:19:51.797Z,8.7
2019-05-03T19:25:46.696Z,8.6
2019-05-03T19:31:01.278Z,8.6
2019-05-03T19:43:35.506Z,8.5
2019-05-03T19:48:35.515Z,8.5
2019-05-03T19:54:35.891Z,8.3
2019-05-03T20:02:36.113Z,8.2
2019-05-03T20:11:16.771Z,8.2
2019-05-03T20:16:26.272Z,8.1
2019-05-03T20:22:10.510Z,8.1
2019-05-03T20:27:29.015Z,8.1
2019-05-03T20:32:56.023Z,8
2019-05-03T20:43:52.312Z,7.8
2019-05-03T20:48:54.161Z,7.8
2019-05-03T20:53:55.322Z,7.7
2019-05-03T20:58:55.668Z,7.7
2019-05-03T21:04:50.684Z,7.7
2019-05-03T21:09:50.650Z,7.7
2019-05-03T21:14:50.594Z,7.6
2019-05-03T21:19:50.629Z,7.6
2019-05-03T21:24:50.764Z,7.6
2019-05-03T21:29:50.906Z,7.6
2019-05-03T21:34:50.896Z,7.5
2019-05-03T21:39:51.779Z,7.5
2019-05-03T21:44:51.885Z,7.5
2019-05-03T21:49:51.885Z,7.5
2019-05-03T21:54:52.071Z,7.4
2019-05-03T21:59:54.889Z,7.4
2019-05-03T22:04:53.112Z,7.4
2019-05-03T22:09:54.448Z,7.4
2019-05-03T22:14:54.495Z,7.3
2019-05-03T22:19:54.308Z,7.3
2019-05-03T22:24:53.121Z,7.3
2019-05-03T22:29:54.569Z,7.3
2019-05-03T22:34:53.201Z,7.3
2019-05-03T22:39:54.962Z,7.3
2019-05-03T22:44:55.205Z,7.3
2019-05-03T22:49:54.738Z,7.3
2019-05-03T22:54:53.122Z,7.3
2019-05-03T22:59:53.301Z,7.3
2019-05-03T23:04:55.246Z,7.3
2019-05-03T23:09:53.092Z,7.2
2019-05-03T23:14:54.979Z,7.3
2019-05-03T23:19:53.209Z,7.2
2019-05-03T23:24:54.777Z,7.2
2019-05-03T23:29:54.469Z,7.2
2019-05-03T23:34:54.381Z,7.2
2019-05-03T23:39:55.105Z,7.1
2019-05-03T23:44:54.016Z,7.1
2019-05-03T23:49:55.357Z,7.1
2019-05-03T23:54:54.877Z,7.1
2019-05-03T23:59:54.915Z,7.1
